Viking, Canada
Current Conditions -  °F | °C
As of 9:06 PM on Thursday 20 Nov 2014 (Local Time) from CYLL Reporting Station
Light Rain Light Rain  
Wind Chill: 26°   Ceiling: 6500
Heat Index: 32°   Visibility: 15mi
Dew Point: 27°   Wind: 6mph
Humidity: 80%   Direction: 250°WSW
Pressure: 29.48"   Gusts: NA
Location:  53.08°N, 111.78°W
Report Text: CYLL 210406Z 25005KT 15SM -RA OVC065 00/M03 A2948 RMK SC8 LAST STFD OBS/NEXT 211400 UTC SLP017
Loading
Personal Weather Stations






























Interactive Weather Map New forecast layout! Learn more

10-Day Weather Forecast

Advertisements
Track Severe Weather on mobile